Terminal Aerodrome Forecast
Issued by NWS

Home | Current Version | Previous Version | Text Only | Print | Product List | Glossary On
Versions: 1 2 3 4 5 6 7 8 9 10 11 12 13 14 15 16 17 18 19
510
FTUS43 KAPX 111127
TAFPLN
TAF
KPLN 111127Z 1112/1212 34005KT P6SM BKN028
     FM111400 33008G16KT P6SM BKN035
     FM112000 28010G16KT 5SM -SHSN BKN028
     FM120000 27008G16KT 2SM -SHSN SCT018 OVC025=

USA.gov is the U.S. government's official web portal to all federal, state and local government web resources and services.